sensor_id;sensor_type;location;lat;lon;timestamp;P1;durP1;ratioP1;P2;durP2;ratioP2
29730;SDS011;16639;51.488;0.152;2024-03-23T00:54:04;19.40;;;3.20;;
29730;SDS011;16639;51.488;0.152;2024-03-23T00:56:31;16.30;;;3.08;;
29730;SDS011;16639;51.488;0.152;2024-03-23T00:58:57;14.88;;;4.20;;
29730;SDS011;16639;51.488;0.152;2024-03-23T01:01:23;17.42;;;2.92;;
29730;SDS011;16639;51.488;0.152;2024-03-23T01:03:50;12.27;;;3.67;;
29730;SDS011;16639;51.488;0.152;2024-03-23T01:06:16;13.07;;;3.85;;
29730;SDS011;16639;51.488;0.152;2024-03-23T01:08:42;9.60;;;3.00;;
29730;SDS011;16639;51.488;0.152;2024-03-23T01:11:08;13.00;;;3.58;;
29730;SDS011;16639;51.488;0.152;2024-03-23T01:13:35;13.88;;;2.72;;
29730;SDS011;16639;51.488;0.152;2024-03-23T01:16:01;8.80;;;3.55;;
29730;SDS011;16639;51.488;0.152;2024-03-23T01:18:28;8.95;;;3.28;;
29730;SDS011;16639;51.488;0.152;2024-03-23T01:20:55;16.70;;;3.45;;
29730;SDS011;16639;51.488;0.152;2024-03-23T01:23:21;14.73;;;4.13;;
29730;SDS011;16639;51.488;0.152;2024-03-23T01:25:53;20.73;;;3.60;;
29730;SDS011;16639;51.488;0.152;2024-03-23T01:28:20;10.38;;;2.90;;
29730;SDS011;16639;51.488;0.152;2024-03-23T01:30:47;10.32;;;3.08;;
29730;SDS011;16639;51.488;0.152;2024-03-23T01:33:13;12.43;;;3.08;;
29730;SDS011;16639;51.488;0.152;2024-03-23T01:35:40;9.32;;;3.15;;
29730;SDS011;16639;51.488;0.152;2024-03-23T01:38:06;11.68;;;2.88;;
29730;SDS011;16639;51.488;0.152;2024-03-23T01:40:32;14.48;;;2.75;;
29730;SDS011;16639;51.488;0.152;2024-03-23T01:43:03;16.55;;;3.58;;
29730;SDS011;16639;51.488;0.152;2024-03-23T01:45:36;12.70;;;2.78;;
29730;SDS011;16639;51.488;0.152;2024-03-23T01:48:02;8.18;;;2.55;;
29730;SDS011;16639;51.488;0.152;2024-03-23T01:50:30;11.65;;;2.80;;
29730;SDS011;16639;51.488;0.152;2024-03-23T01:53:01;9.40;;;3.10;;
29730;SDS011;16639;51.488;0.152;2024-03-23T01:55:28;16.35;;;3.33;;
29730;SDS011;16639;51.488;0.152;2024-03-23T01:57:56;14.23;;;3.60;;
29730;SDS011;16639;51.488;0.152;2024-03-23T02:00:23;9.27;;;2.30;;
29730;SDS011;16639;51.488;0.152;2024-03-23T02:02:50;8.52;;;2.42;;
29730;SDS011;16639;51.488;0.152;2024-03-23T02:05:16;21.15;;;3.05;;
29730;SDS011;16639;51.488;0.152;2024-03-23T02:07:43;11.07;;;2.75;;
29730;SDS011;16639;51.488;0.152;2024-03-23T02:10:10;10.70;;;2.60;;
29730;SDS011;16639;51.488;0.152;2024-03-23T02:12:39;9.18;;;2.53;;
29730;SDS011;16639;51.488;0.152;2024-03-23T02:15:05;7.28;;;2.00;;
29730;SDS011;16639;51.488;0.152;2024-03-23T02:17:33;10.50;;;2.25;;
29730;SDS011;16639;51.488;0.152;2024-03-23T02:20:00;6.40;;;2.63;;
29730;SDS011;16639;51.488;0.152;2024-03-23T02:22:39;11.93;;;2.58;;
29730;SDS011;16639;51.488;0.152;2024-03-23T02:25:05;6.40;;;2.47;;
29730;SDS011;16639;51.488;0.152;2024-03-23T02:27:32;11.60;;;2.60;;
29730;SDS011;16639;51.488;0.152;2024-03-23T02:30:00;7.50;;;1.92;;
29730;SDS011;16639;51.488;0.152;2024-03-23T02:32:26;8.73;;;3.55;;
29730;SDS011;16639;51.488;0.152;2024-03-23T02:34:53;4.40;;;2.15;;
29730;SDS011;16639;51.488;0.152;2024-03-23T02:37:19;10.68;;;2.20;;
29730;SDS011;16639;51.488;0.152;2024-03-23T02:39:45;7.93;;;2.42;;
29730;SDS011;16639;51.488;0.152;2024-03-23T02:42:11;8.65;;;2.50;;
29730;SDS011;16639;51.488;0.152;2024-03-23T02:44:38;10.80;;;2.58;;
29730;SDS011;16639;51.488;0.152;2024-03-23T02:47:04;5.80;;;2.13;;
29730;SDS011;16639;51.488;0.152;2024-03-23T02:49:31;13.43;;;3.65;;
29730;SDS011;16639;51.488;0.152;2024-03-23T02:51:57;7.32;;;2.47;;
29730;SDS011;16639;51.488;0.152;2024-03-23T02:54:24;10.20;;;3.00;;
29730;SDS011;16639;51.488;0.152;2024-03-23T02:56:50;11.93;;;2.38;;
29730;SDS011;16639;51.488;0.152;2024-03-23T02:59:16;11.48;;;2.75;;
29730;SDS011;16639;51.488;0.152;2024-03-23T03:01:42;11.95;;;3.70;;
29730;SDS011;16639;51.488;0.152;2024-03-23T03:04:09;14.27;;;3.53;;
29730;SDS011;16639;51.488;0.152;2024-03-23T03:06:35;5.15;;;2.28;;
29730;SDS011;16639;51.488;0.152;2024-03-23T03:09:02;10.95;;;2.45;;
29730;SDS011;16639;51.488;0.152;2024-03-23T03:11:28;7.25;;;1.92;;
29730;SDS011;16639;51.488;0.152;2024-03-23T03:13:54;12.50;;;2.50;;
29730;SDS011;16639;51.488;0.152;2024-03-23T03:16:21;9.77;;;2.33;;
29730;SDS011;16639;51.488;0.152;2024-03-23T03:18:47;5.35;;;2.45;;
29730;SDS011;16639;51.488;0.152;2024-03-23T03:21:13;7.35;;;2.63;;
29730;SDS011;16639;51.488;0.152;2024-03-23T03:23:39;12.02;;;2.40;;
29730;SDS011;16639;51.488;0.152;2024-03-23T03:26:06;6.00;;;2.30;;
29730;SDS011;16639;51.488;0.152;2024-03-23T03:28:32;11.63;;;3.25;;
29730;SDS011;16639;51.488;0.152;2024-03-23T03:30:59;3.72;;;2.00;;
29730;SDS011;16639;51.488;0.152;2024-03-23T03:33:26;8.43;;;2.83;;
29730;SDS011;16639;51.488;0.152;2024-03-23T03:35:53;12.95;;;2.60;;
29730;SDS011;16639;51.488;0.152;2024-03-23T03:38:20;8.68;;;2.28;;
29730;SDS011;16639;51.488;0.152;2024-03-23T03:40:48;10.32;;;2.53;;
29730;SDS011;16639;51.488;0.152;2024-03-23T03:43:14;13.27;;;2.78;;
29730;SDS011;16639;51.488;0.152;2024-03-23T03:45:40;9.23;;;2.60;;
29730;SDS011;16639;51.488;0.152;2024-03-23T03:48:07;7.55;;;3.22;;
29730;SDS011;16639;51.488;0.152;2024-03-23T03:50:33;11.00;;;2.75;;
29730;SDS011;16639;51.488;0.152;2024-03-23T03:52:59;9.60;;;2.80;;
29730;SDS011;16639;51.488;0.152;2024-03-23T03:55:26;8.68;;;3.15;;
29730;SDS011;16639;51.488;0.152;2024-03-23T03:57:53;19.73;;;4.00;;
29730;SDS011;16639;51.488;0.152;2024-03-23T04:00:19;9.93;;;2.88;;
29730;SDS011;16639;51.488;0.152;2024-03-23T04:02:45;8.27;;;2.45;;
29730;SDS011;16639;51.488;0.152;2024-03-23T04:05:12;12.75;;;3.45;;
29730;SDS011;16639;51.488;0.152;2024-03-23T04:07:39;13.77;;;2.72;;
29730;SDS011;16639;51.488;0.152;2024-03-23T04:10:05;7.22;;;2.67;;
29730;SDS011;16639;51.488;0.152;2024-03-23T04:12:34;8.60;;;2.13;;
29730;SDS011;16639;51.488;0.152;2024-03-23T04:15:00;15.48;;;3.33;;
29730;SDS011;16639;51.488;0.152;2024-03-23T04:17:29;10.18;;;2.67;;
29730;SDS011;16639;51.488;0.152;2024-03-23T04:20:00;13.75;;;2.78;;
29730;SDS011;16639;51.488;0.152;2024-03-23T04:22:27;14.52;;;3.05;;
29730;SDS011;16639;51.488;0.152;2024-03-23T04:24:56;11.88;;;2.15;;
29730;SDS011;16639;51.488;0.152;2024-03-23T04:27:23;12.85;;;2.50;;
29730;SDS011;16639;51.488;0.152;2024-03-23T04:29:50;9.63;;;2.53;;
29730;SDS011;16639;51.488;0.152;2024-03-23T04:32:17;7.50;;;2.40;;
29730;SDS011;16639;51.488;0.152;2024-03-23T04:34:43;12.73;;;3.63;;
29730;SDS011;16639;51.488;0.152;2024-03-23T04:37:11;11.73;;;2.38;;
29730;SDS011;16639;51.488;0.152;2024-03-23T04:39:37;13.45;;;4.97;;
29730;SDS011;16639;51.488;0.152;2024-03-23T04:42:04;15.65;;;2.83;;
29730;SDS011;16639;51.488;0.152;2024-03-23T04:44:30;10.02;;;2.50;;
29730;SDS011;16639;51.488;0.152;2024-03-23T04:46:57;8.30;;;2.40;;
29730;SDS011;16639;51.488;0.152;2024-03-23T04:49:23;6.82;;;2.42;;
29730;SDS011;16639;51.488;0.152;2024-03-23T04:51:50;10.32;;;2.17;;
29730;SDS011;16639;51.488;0.152;2024-03-23T04:54:16;4.10;;;1.95;;
29730;SDS011;16639;51.488;0.152;2024-03-23T04:56:42;11.07;;;2.75;;
29730;SDS011;16639;51.488;0.152;2024-03-23T04:59:08;6.28;;;2.33;;
29730;SDS011;16639;51.488;0.152;2024-03-23T05:01:35;6.50;;;2.47;;
29730;SDS011;16639;51.488;0.152;2024-03-23T05:04:04;4.93;;;2.25;;
29730;SDS011;16639;51.488;0.152;2024-03-23T05:06:30;10.63;;;2.95;;
29730;SDS011;16639;51.488;0.152;2024-03-23T05:08:57;10.85;;;3.10;;
29730;SDS011;16639;51.488;0.152;2024-03-23T05:11:23;8.27;;;2.08;;
29730;SDS011;16639;51.488;0.152;2024-03-23T05:13:49;7.53;;;2.83;;
29730;SDS011;16639;51.488;0.152;2024-03-23T05:16:16;6.97;;;2.92;;
29730;SDS011;16639;51.488;0.152;2024-03-23T05:18:42;6.90;;;2.33;;
29730;SDS011;16639;51.488;0.152;2024-03-23T05:21:08;14.18;;;2.95;;
29730;SDS011;16639;51.488;0.152;2024-03-23T05:23:35;6.20;;;2.33;;
29730;SDS011;16639;51.488;0.152;2024-03-23T05:26:01;16.73;;;2.60;;
29730;SDS011;16639;51.488;0.152;2024-03-23T05:28:27;11.05;;;2.40;;
29730;SDS011;16639;51.488;0.152;2024-03-23T05:30:54;15.73;;;2.45;;
29730;SDS011;16639;51.488;0.152;2024-03-23T05:33:22;8.80;;;2.55;;
29730;SDS011;16639;51.488;0.152;2024-03-23T05:35:58;16.58;;;3.28;;
29730;SDS011;16639;51.488;0.152;2024-03-23T05:38:26;16.30;;;2.83;;
29730;SDS011;16639;51.488;0.152;2024-03-23T05:40:53;7.10;;;2.40;;
29730;SDS011;16639;51.488;0.152;2024-03-23T05:43:23;13.70;;;2.60;;
29730;SDS011;16639;51.488;0.152;2024-03-23T05:45:56;16.60;;;2.95;;
29730;SDS011;16639;51.488;0.152;2024-03-23T05:48:23;5.68;;;2.78;;
29730;SDS011;16639;51.488;0.152;2024-03-23T05:50:50;11.82;;;2.42;;
29730;SDS011;16639;51.488;0.152;2024-03-23T05:53:17;9.98;;;2.13;;
29730;SDS011;16639;51.488;0.152;2024-03-23T05:55:44;9.52;;;2.55;;
29730;SDS011;16639;51.488;0.152;2024-03-23T05:58:10;12.13;;;2.88;;
29730;SDS011;16639;51.488;0.152;2024-03-23T06:00:37;17.13;;;2.92;;
29730;SDS011;16639;51.488;0.152;2024-03-23T06:03:03;8.95;;;2.88;;
29730;SDS011;16639;51.488;0.152;2024-03-23T06:05:29;14.07;;;2.70;;
29730;SDS011;16639;51.488;0.152;2024-03-23T06:07:56;13.25;;;2.67;;
29730;SDS011;16639;51.488;0.152;2024-03-23T06:10:22;7.75;;;3.30;;
29730;SDS011;16639;51.488;0.152;2024-03-23T06:12:48;8.80;;;2.40;;
29730;SDS011;16639;51.488;0.152;2024-03-23T06:15:21;16.63;;;2.97;;
29730;SDS011;16639;51.488;0.152;2024-03-23T06:17:48;10.07;;;2.22;;
29730;SDS011;16639;51.488;0.152;2024-03-23T06:20:14;8.95;;;2.40;;
29730;SDS011;16639;51.488;0.152;2024-03-23T06:22:41;11.25;;;3.08;;
29730;SDS011;16639;51.488;0.152;2024-03-23T06:25:07;6.45;;;2.10;;
29730;SDS011;16639;51.488;0.152;2024-03-23T06:27:34;6.78;;;3.13;;
29730;SDS011;16639;51.488;0.152;2024-03-23T06:30:00;10.85;;;2.65;;
29730;SDS011;16639;51.488;0.152;2024-03-23T06:32:27;8.38;;;2.38;;
29730;SDS011;16639;51.488;0.152;2024-03-23T06:34:54;14.10;;;2.70;;
29730;SDS011;16639;51.488;0.152;2024-03-23T06:37:21;11.95;;;2.97;;
29730;SDS011;16639;51.488;0.152;2024-03-23T06:39:47;10.20;;;2.97;;
29730;SDS011;16639;51.488;0.152;2024-03-23T06:42:13;8.85;;;2.58;;
29730;SDS011;16639;51.488;0.152;2024-03-23T06:44:39;10.77;;;3.05;;
29730;SDS011;16639;51.488;0.152;2024-03-23T06:47:06;7.25;;;2.60;;
29730;SDS011;16639;51.488;0.152;2024-03-23T06:49:32;8.23;;;3.00;;
29730;SDS011;16639;51.488;0.152;2024-03-23T06:51:58;11.43;;;2.90;;
29730;SDS011;16639;51.488;0.152;2024-03-23T06:54:25;13.63;;;2.70;;
29730;SDS011;16639;51.488;0.152;2024-03-23T06:56:52;10.43;;;3.00;;
29730;SDS011;16639;51.488;0.152;2024-03-23T06:59:18;12.20;;;2.70;;
29730;SDS011;16639;51.488;0.152;2024-03-23T07:01:45;12.88;;;3.25;;
29730;SDS011;16639;51.488;0.152;2024-03-23T07:04:11;14.15;;;3.97;;
29730;SDS011;16639;51.488;0.152;2024-03-23T07:06:44;17.52;;;3.25;;
29730;SDS011;16639;51.488;0.152;2024-03-23T07:09:11;6.20;;;2.30;;
29730;SDS011;16639;51.488;0.152;2024-03-23T07:11:38;12.50;;;4.03;;
29730;SDS011;16639;51.488;0.152;2024-03-23T07:14:04;11.18;;;3.28;;
29730;SDS011;16639;51.488;0.152;2024-03-23T07:16:30;9.82;;;2.85;;
29730;SDS011;16639;51.488;0.152;2024-03-23T07:18:57;16.45;;;3.47;;
29730;SDS011;16639;51.488;0.152;2024-03-23T07:21:24;9.82;;;2.67;;
29730;SDS011;16639;51.488;0.152;2024-03-23T07:23:50;16.55;;;3.03;;
29730;SDS011;16639;51.488;0.152;2024-03-23T07:26:16;19.77;;;4.03;;
29730;SDS011;16639;51.488;0.152;2024-03-23T07:28:44;13.15;;;2.67;;
29730;SDS011;16639;51.488;0.152;2024-03-23T07:31:12;9.25;;;2.92;;
29730;SDS011;16639;51.488;0.152;2024-03-23T07:33:44;13.57;;;3.03;;
29730;SDS011;16639;51.488;0.152;2024-03-23T07:36:11;15.98;;;3.30;;
29730;SDS011;16639;51.488;0.152;2024-03-23T07:38:41;14.57;;;2.83;;
29730;SDS011;16639;51.488;0.152;2024-03-23T07:41:11;11.65;;;2.88;;
29730;SDS011;16639;51.488;0.152;2024-03-23T07:43:40;11.77;;;2.42;;
29730;SDS011;16639;51.488;0.152;2024-03-23T07:46:06;10.48;;;4.45;;
29730;SDS011;16639;51.488;0.152;2024-03-23T07:48:32;14.80;;;2.72;;
29730;SDS011;16639;51.488;0.152;2024-03-23T07:51:03;17.10;;;4.45;;
29730;SDS011;16639;51.488;0.152;2024-03-23T07:53:33;8.98;;;2.33;;
29730;SDS011;16639;51.488;0.152;2024-03-23T07:56:02;11.10;;;3.00;;
29730;SDS011;16639;51.488;0.152;2024-03-23T07:58:32;15.18;;;3.65;;
29730;SDS011;16639;51.488;0.152;2024-03-23T08:01:07;9.10;;;2.63;;
29730;SDS011;16639;51.488;0.152;2024-03-23T08:03:38;16.15;;;3.25;;
29730;SDS011;16639;51.488;0.152;2024-03-23T08:06:27;9.48;;;2.70;;
29730;SDS011;16639;51.488;0.152;2024-03-23T08:08:53;12.55;;;4.15;;
29730;SDS011;16639;51.488;0.152;2024-03-23T08:11:27;11.43;;;3.33;;
29730;SDS011;16639;51.488;0.152;2024-03-23T08:13:55;18.25;;;3.05;;
29730;SDS011;16639;51.488;0.152;2024-03-23T08:16:21;14.25;;;3.88;;
29730;SDS011;16639;51.488;0.152;2024-03-23T08:18:48;14.40;;;3.45;;
29730;SDS011;16639;51.488;0.152;2024-03-23T08:21:17;11.55;;;3.88;;
29730;SDS011;16639;51.488;0.152;2024-03-23T08:23:44;19.13;;;2.92;;
29730;SDS011;16639;51.488;0.152;2024-03-23T08:26:12;18.10;;;3.95;;
29730;SDS011;16639;51.488;0.152;2024-03-23T08:28:40;12.93;;;3.05;;
29730;SDS011;16639;51.488;0.152;2024-03-23T08:31:07;16.98;;;3.05;;
29730;SDS011;16639;51.488;0.152;2024-03-23T08:33:35;18.85;;;3.75;;
29730;SDS011;16639;51.488;0.152;2024-03-23T08:36:02;13.60;;;3.33;;
29730;SDS011;16639;51.488;0.152;2024-03-23T08:38:30;12.93;;;2.80;;
29730;SDS011;16639;51.488;0.152;2024-03-23T08:41:01;13.43;;;3.10;;
29730;SDS011;16639;51.488;0.152;2024-03-23T08:43:41;13.43;;;3.22;;
29730;SDS011;16639;51.488;0.152;2024-03-23T08:46:08;17.25;;;3.55;;
29730;SDS011;16639;51.488;0.152;2024-03-23T08:48:35;11.63;;;3.60;;
29730;SDS011;16639;51.488;0.152;2024-03-23T08:51:06;10.00;;;2.83;;
29730;SDS011;16639;51.488;0.152;2024-03-23T08:53:34;17.77;;;3.33;;
29730;SDS011;16639;51.488;0.152;2024-03-23T08:56:01;15.05;;;3.20;;
29730;SDS011;16639;51.488;0.152;2024-03-23T08:58:29;13.98;;;2.83;;
29730;SDS011;16639;51.488;0.152;2024-03-23T09:00:56;13.00;;;3.40;;
29730;SDS011;16639;51.488;0.152;2024-03-23T09:03:29;9.00;;;3.15;;
29730;SDS011;16639;51.488;0.152;2024-03-23T09:05:55;14.38;;;3.28;;
29730;SDS011;16639;51.488;0.152;2024-03-23T09:08:21;10.52;;;3.30;;
29730;SDS011;16639;51.488;0.152;2024-03-23T09:10:47;9.77;;;3.50;;
29730;SDS011;16639;51.488;0.152;2024-03-23T09:13:14;9.57;;;2.72;;
29730;SDS011;16639;51.488;0.152;2024-03-23T09:15:46;11.48;;;2.75;;
29730;SDS011;16639;51.488;0.152;2024-03-23T09:18:13;13.35;;;5.80;;
29730;SDS011;16639;51.488;0.152;2024-03-23T09:20:39;15.60;;;3.42;;
29730;SDS011;16639;51.488;0.152;2024-03-23T09:23:06;6.60;;;2.65;;
29730;SDS011;16639;51.488;0.152;2024-03-23T09:25:35;9.35;;;2.85;;
29730;SDS011;16639;51.488;0.152;2024-03-23T09:28:02;16.45;;;2.88;;
29730;SDS011;16639;51.488;0.152;2024-03-23T09:30:29;6.75;;;2.55;;
29730;SDS011;16639;51.488;0.152;2024-03-23T09:32:55;18.77;;;3.65;;
29730;SDS011;16639;51.488;0.152;2024-03-23T09:35:21;13.02;;;2.38;;
29730;SDS011;16639;51.488;0.152;2024-03-23T09:37:47;13.82;;;2.97;;
29730;SDS011;16639;51.488;0.152;2024-03-23T09:40:14;12.57;;;2.33;;
29730;SDS011;16639;51.488;0.152;2024-03-23T09:42:41;13.05;;;2.78;;
29730;SDS011;16639;51.488;0.152;2024-03-23T09:45:22;10.68;;;2.30;;
29730;SDS011;16639;51.488;0.152;2024-03-23T09:47:52;11.15;;;2.58;;
29730;SDS011;16639;51.488;0.152;2024-03-23T09:50:18;14.25;;;2.88;;
29730;SDS011;16639;51.488;0.152;2024-03-23T09:52:48;7.30;;;2.35;;
29730;SDS011;16639;51.488;0.152;2024-03-23T09:55:14;12.80;;;2.35;;
29730;SDS011;16639;51.488;0.152;2024-03-23T09:57:41;8.98;;;2.55;;
29730;SDS011;16639;51.488;0.152;2024-03-23T10:00:08;13.52;;;2.53;;
29730;SDS011;16639;51.488;0.152;2024-03-23T10:02:35;14.88;;;2.28;;
29730;SDS011;16639;51.488;0.152;2024-03-23T10:05:01;11.50;;;2.85;;
29730;SDS011;16639;51.488;0.152;2024-03-23T10:07:28;12.13;;;2.67;;
29730;SDS011;16639;51.488;0.152;2024-03-23T10:09:54;7.85;;;1.80;;
29730;SDS011;16639;51.488;0.152;2024-03-23T10:12:22;10.77;;;1.88;;
29730;SDS011;16639;51.488;0.152;2024-03-23T10:14:49;13.30;;;2.95;;
29730;SDS011;16639;51.488;0.152;2024-03-23T10:17:16;10.55;;;2.15;;
29730;SDS011;16639;51.488;0.152;2024-03-23T10:19:50;13.20;;;2.72;;
29730;SDS011;16639;51.488;0.152;2024-03-23T10:22:18;13.23;;;3.15;;
29730;SDS011;16639;51.488;0.152;2024-03-23T10:24:46;20.60;;;4.00;;
29730;SDS011;16639;51.488;0.152;2024-03-23T10:27:16;8.13;;;2.13;;
29730;SDS011;16639;51.488;0.152;2024-03-23T10:29:47;13.38;;;2.55;;
29730;SDS011;16639;51.488;0.152;2024-03-23T10:32:15;7.05;;;2.08;;
29730;SDS011;16639;51.488;0.152;2024-03-23T10:34:43;9.13;;;2.60;;
29730;SDS011;16639;51.488;0.152;2024-03-23T10:37:09;11.25;;;2.47;;
29730;SDS011;16639;51.488;0.152;2024-03-23T10:39:37;10.90;;;2.40;;
29730;SDS011;16639;51.488;0.152;2024-03-23T10:42:08;11.43;;;2.33;;
29730;SDS011;16639;51.488;0.152;2024-03-23T10:44:38;6.32;;;1.90;;
29730;SDS011;16639;51.488;0.152;2024-03-23T10:47:05;12.85;;;2.53;;
29730;SDS011;16639;51.488;0.152;2024-03-23T10:49:32;9.02;;;2.25;;
29730;SDS011;16639;51.488;0.152;2024-03-23T10:51:59;4.70;;;1.83;;
29730;SDS011;16639;51.488;0.152;2024-03-23T10:54:28;4.90;;;2.28;;
29730;SDS011;16639;51.488;0.152;2024-03-23T10:57:06;5.60;;;2.53;;
29730;SDS011;16639;51.488;0.152;2024-03-23T10:59:36;9.05;;;2.08;;
29730;SDS011;16639;51.488;0.152;2024-03-23T11:02:04;11.45;;;2.20;;
29730;SDS011;16639;51.488;0.152;2024-03-23T11:09:49;5.28;;;1.92;;
29730;SDS011;16639;51.488;0.152;2024-03-23T11:14:47;13.20;;;1.73;;
29730;SDS011;16639;51.488;0.152;2024-03-23T11:17:19;10.07;;;2.15;;
29730;SDS011;16639;51.488;0.152;2024-03-23T11:19:53;10.48;;;2.13;;
29730;SDS011;16639;51.488;0.152;2024-03-23T11:23:00;29.75;;;2.53;;
29730;SDS011;16639;51.488;0.152;2024-03-23T11:25:20;9.50;;;2.75;;
29730;SDS011;16639;51.488;0.152;2024-03-23T11:27:47;15.15;;;2.50;;
29730;SDS011;16639;51.488;0.152;2024-03-23T11:30:15;6.03;;;2.38;;
29730;SDS011;16639;51.488;0.152;2024-03-23T11:32:48;4.65;;;1.80;;
29730;SDS011;16639;51.488;0.152;2024-03-23T11:35:25;8.63;;;1.88;;
29730;SDS011;16639;51.488;0.152;2024-03-23T11:40:32;11.88;;;2.40;;
29730;SDS011;16639;51.488;0.152;2024-03-23T11:43:04;9.00;;;2.67;;
29730;SDS011;16639;51.488;0.152;2024-03-23T11:45:39;5.82;;;2.00;;
29730;SDS011;16639;51.488;0.152;2024-03-23T11:48:08;4.30;;;1.90;;
29730;SDS011;16639;51.488;0.152;2024-03-23T11:50:36;5.82;;;2.17;;
29730;SDS011;16639;51.488;0.152;2024-03-23T11:53:14;7.40;;;2.05;;
29730;SDS011;16639;51.488;0.152;2024-03-23T11:58:17;6.22;;;1.92;;
29730;SDS011;16639;51.488;0.152;2024-03-23T12:01:01;6.03;;;1.88;;
29730;SDS011;16639;51.488;0.152;2024-03-23T12:03:29;11.15;;;3.60;;
29730;SDS011;16639;51.488;0.152;2024-03-23T12:05:57;9.57;;;2.38;;
29730;SDS011;16639;51.488;0.152;2024-03-23T12:11:28;6.55;;;2.10;;
29730;SDS011;16639;51.488;0.152;2024-03-23T12:13:48;7.20;;;1.88;;
29730;SDS011;16639;51.488;0.152;2024-03-23T12:16:17;8.93;;;1.80;;
29730;SDS011;16639;51.488;0.152;2024-03-23T12:18:47;8.75;;;2.10;;
29730;SDS011;16639;51.488;0.152;2024-03-23T12:21:17;4.75;;;2.33;;
29730;SDS011;16639;51.488;0.152;2024-03-23T12:23:44;7.90;;;2.28;;
29730;SDS011;16639;51.488;0.152;2024-03-23T12:26:12;5.13;;;1.63;;
29730;SDS011;16639;51.488;0.152;2024-03-23T12:28:39;10.18;;;2.33;;
29730;SDS011;16639;51.488;0.152;2024-03-23T12:31:05;7.13;;;1.65;;
29730;SDS011;16639;51.488;0.152;2024-03-23T12:33:31;6.05;;;2.63;;
29730;SDS011;16639;51.488;0.152;2024-03-23T12:35:58;4.57;;;1.77;;
29730;SDS011;16639;51.488;0.152;2024-03-23T12:38:24;5.93;;;2.20;;
29730;SDS011;16639;51.488;0.152;2024-03-23T12:40:50;10.50;;;2.13;;
29730;SDS011;16639;51.488;0.152;2024-03-23T12:43:17;3.75;;;1.77;;
29730;SDS011;16639;51.488;0.152;2024-03-23T12:45:47;7.65;;;1.67;;
29730;SDS011;16639;51.488;0.152;2024-03-23T12:48:14;9.82;;;2.25;;
29730;SDS011;16639;51.488;0.152;2024-03-23T12:50:41;4.03;;;1.83;;
29730;SDS011;16639;51.488;0.152;2024-03-23T12:53:08;8.07;;;1.92;;
29730;SDS011;16639;51.488;0.152;2024-03-23T12:55:34;9.50;;;1.80;;
29730;SDS011;16639;51.488;0.152;2024-03-23T12:58:01;3.88;;;1.55;;
29730;SDS011;16639;51.488;0.152;2024-03-23T13:00:28;5.13;;;2.50;;
29730;SDS011;16639;51.488;0.152;2024-03-23T13:02:55;3.42;;;1.70;;
29730;SDS011;16639;51.488;0.152;2024-03-23T13:05:21;7.88;;;2.63;;
29730;SDS011;16639;51.488;0.152;2024-03-23T13:07:47;7.38;;;2.38;;
29730;SDS011;16639;51.488;0.152;2024-03-23T13:10:15;5.90;;;2.05;;
29730;SDS011;16639;51.488;0.152;2024-03-23T13:12:42;6.45;;;1.70;;
29730;SDS011;16639;51.488;0.152;2024-03-23T13:15:08;5.50;;;2.35;;
29730;SDS011;16639;51.488;0.152;2024-03-23T13:17:35;5.30;;;1.33;;
29730;SDS011;16639;51.488;0.152;2024-03-23T13:20:01;6.45;;;1.73;;
29730;SDS011;16639;51.488;0.152;2024-03-23T13:22:29;5.38;;;1.13;;
29730;SDS011;16639;51.488;0.152;2024-03-23T13:24:56;6.32;;;1.85;;
29730;SDS011;16639;51.488;0.152;2024-03-23T13:27:22;2.85;;;1.55;;
29730;SDS011;16639;51.488;0.152;2024-03-23T13:29:48;5.18;;;1.73;;
29730;SDS011;16639;51.488;0.152;2024-03-23T13:32:16;7.85;;;2.10;;
29730;SDS011;16639;51.488;0.152;2024-03-23T13:34:42;7.50;;;1.27;;
29730;SDS011;16639;51.488;0.152;2024-03-23T13:37:08;5.82;;;1.90;;
29730;SDS011;16639;51.488;0.152;2024-03-23T13:39:36;3.17;;;1.15;;
29730;SDS011;16639;51.488;0.152;2024-03-23T13:42:03;4.20;;;1.75;;
29730;SDS011;16639;51.488;0.152;2024-03-23T13:44:31;3.72;;;1.80;;
29730;SDS011;16639;51.488;0.152;2024-03-23T13:46:57;1.92;;;1.17;;
29730;SDS011;16639;51.488;0.152;2024-03-23T13:49:28;4.00;;;1.20;;
29730;SDS011;16639;51.488;0.152;2024-03-23T13:51:55;8.48;;;1.77;;
29730;SDS011;16639;51.488;0.152;2024-03-23T13:54:26;3.95;;;1.50;;
29730;SDS011;16639;51.488;0.152;2024-03-23T13:56:53;4.88;;;1.67;;
29730;SDS011;16639;51.488;0.152;2024-03-23T13:59:20;5.18;;;1.88;;
29730;SDS011;16639;51.488;0.152;2024-03-23T14:01:49;8.48;;;1.48;;
29730;SDS011;16639;51.488;0.152;2024-03-23T14:04:16;7.03;;;2.10;;
29730;SDS011;16639;51.488;0.152;2024-03-23T14:06:43;6.72;;;1.92;;
29730;SDS011;16639;51.488;0.152;2024-03-23T14:09:12;11.45;;;1.67;;
29730;SDS011;16639;51.488;0.152;2024-03-23T14:11:40;4.53;;;1.10;;
29730;SDS011;16639;51.488;0.152;2024-03-23T14:14:09;5.55;;;1.38;;
29730;SDS011;16639;51.488;0.152;2024-03-23T14:16:35;1.63;;;1.13;;
29730;SDS011;16639;51.488;0.152;2024-03-23T14:19:01;2.55;;;1.35;;
29730;SDS011;16639;51.488;0.152;2024-03-23T14:21:29;3.10;;;1.25;;
29730;SDS011;16639;51.488;0.152;2024-03-23T14:23:55;2.83;;;1.40;;
29730;SDS011;16639;51.488;0.152;2024-03-23T14:26:22;3.72;;;1.65;;
29730;SDS011;16639;51.488;0.152;2024-03-23T14:28:49;2.45;;;1.23;;
29730;SDS011;16639;51.488;0.152;2024-03-23T14:31:16;1.77;;;1.20;;
29730;SDS011;16639;51.488;0.152;2024-03-23T14:33:42;2.05;;;1.20;;
29730;SDS011;16639;51.488;0.152;2024-03-23T14:36:15;6.07;;;1.27;;
29730;SDS011;16639;51.488;0.152;2024-03-23T14:38:47;1.50;;;1.05;;
29730;SDS011;16639;51.488;0.152;2024-03-23T14:41:14;2.83;;;1.23;;
29730;SDS011;16639;51.488;0.152;2024-03-23T14:43:41;3.40;;;1.00;;
29730;SDS011;16639;51.488;0.152;2024-03-23T14:46:13;3.17;;;0.93;;
29730;SDS011;16639;51.488;0.152;2024-03-23T14:48:41;1.90;;;1.00;;
29730;SDS011;16639;51.488;0.152;2024-03-23T14:51:10;2.45;;;1.40;;
29730;SDS011;16639;51.488;0.152;2024-03-23T14:53:40;5.22;;;1.50;;
29730;SDS011;16639;51.488;0.152;2024-03-23T14:56:10;2.40;;;1.20;;
29730;SDS011;16639;51.488;0.152;2024-03-23T14:58:39;1.13;;;0.93;;
29730;SDS011;16639;51.488;0.152;2024-03-23T15:01:06;1.40;;;0.95;;
29730;SDS011;16639;51.488;0.152;2024-03-23T15:03:36;3.13;;;1.33;;
29730;SDS011;16639;51.488;0.152;2024-03-23T15:06:05;2.38;;;0.90;;
29730;SDS011;16639;51.488;0.152;2024-03-23T15:08:32;1.20;;;1.10;;
29730;SDS011;16639;51.488;0.152;2024-03-23T15:11:02;1.23;;;0.90;;
29730;SDS011;16639;51.488;0.152;2024-03-23T15:13:37;1.20;;;0.98;;
29730;SDS011;16639;51.488;0.152;2024-03-23T15:16:04;2.10;;;1.20;;
29730;SDS011;16639;51.488;0.152;2024-03-23T15:18:31;4.50;;;1.60;;
29730;SDS011;16639;51.488;0.152;2024-03-23T15:20:59;3.20;;;1.88;;
29730;SDS011;16639;51.488;0.152;2024-03-23T15:23:31;5.65;;;1.90;;
29730;SDS011;16639;51.488;0.152;2024-03-23T15:25:58;4.30;;;1.80;;
29730;SDS011;16639;51.488;0.152;2024-03-23T15:28:26;3.58;;;1.40;;
29730;SDS011;16639;51.488;0.152;2024-03-23T15:31:06;3.40;;;1.30;;
29730;SDS011;16639;51.488;0.152;2024-03-23T15:33:35;4.53;;;1.63;;
29730;SDS011;16639;51.488;0.152;2024-03-23T15:36:02;4.55;;;1.38;;
29730;SDS011;16639;51.488;0.152;2024-03-23T15:38:31;4.13;;;1.70;;
29730;SDS011;16639;51.488;0.152;2024-03-23T15:40:58;5.30;;;1.40;;
29730;SDS011;16639;51.488;0.152;2024-03-23T15:43:25;3.38;;;1.40;;
29730;SDS011;16639;51.488;0.152;2024-03-23T15:48:26;3.20;;;1.60;;
29730;SDS011;16639;51.488;0.152;2024-03-23T15:50:56;3.00;;;1.60;;
29730;SDS011;16639;51.488;0.152;2024-03-23T15:53:32;3.28;;;1.60;;
29730;SDS011;16639;51.488;0.152;2024-03-23T15:58:26;3.58;;;1.92;;